sensor_id;sensor_type;location;lat;lon;timestamp;P1;durP1;ratioP1;P2;durP2;ratioP2
50495;SDS011;38806;51.554;5.704;2023-04-05T00:01:38;14.57;;;8.77;;
50495;SDS011;38806;51.554;5.704;2023-04-05T00:03:38;15.45;;;8.05;;
50495;SDS011;38806;51.554;5.704;2023-04-05T00:05:39;14.13;;;9.27;;
50495;SDS011;38806;51.554;5.704;2023-04-05T00:07:39;21.58;;;9.18;;
50495;SDS011;38806;51.554;5.704;2023-04-05T00:09:39;15.18;;;9.55;;
50495;SDS011;38806;51.554;5.704;2023-04-05T00:11:39;17.90;;;10.25;;
50495;SDS011;38806;51.554;5.704;2023-04-05T00:13:39;13.70;;;8.45;;
50495;SDS011;38806;51.554;5.704;2023-04-05T00:15:40;17.55;;;8.88;;
50495;SDS011;38806;51.554;5.704;2023-04-05T00:17:40;13.68;;;7.22;;
50495;SDS011;38806;51.554;5.704;2023-04-05T00:19:42;17.27;;;8.25;;
50495;SDS011;38806;51.554;5.704;2023-04-05T00:21:44;17.92;;;10.43;;
50495;SDS011;38806;51.554;5.704;2023-04-05T00:23:44;18.20;;;8.80;;
50495;SDS011;38806;51.554;5.704;2023-04-05T00:25:44;15.48;;;9.68;;
50495;SDS011;38806;51.554;5.704;2023-04-05T00:27:44;17.38;;;8.05;;
50495;SDS011;38806;51.554;5.704;2023-04-05T00:29:44;11.43;;;7.28;;
50495;SDS011;38806;51.554;5.704;2023-04-05T00:31:45;13.77;;;9.82;;
50495;SDS011;38806;51.554;5.704;2023-04-05T00:33:45;16.95;;;8.73;;
50495;SDS011;38806;51.554;5.704;2023-04-05T00:35:45;12.63;;;8.82;;
50495;SDS011;38806;51.554;5.704;2023-04-05T00:37:46;16.80;;;10.32;;
50495;SDS011;38806;51.554;5.704;2023-04-05T00:39:47;13.88;;;10.63;;
50495;SDS011;38806;51.554;5.704;2023-04-05T00:41:47;17.33;;;8.70;;
50495;SDS011;38806;51.554;5.704;2023-04-05T00:43:48;15.77;;;9.68;;
50495;SDS011;38806;51.554;5.704;2023-04-05T00:45:48;19.65;;;10.02;;
50495;SDS011;38806;51.554;5.704;2023-04-05T00:47:48;16.63;;;9.10;;
50495;SDS011;38806;51.554;5.704;2023-04-05T00:49:48;21.20;;;9.57;;
50495;SDS011;38806;51.554;5.704;2023-04-05T00:51:49;15.40;;;9.63;;
50495;SDS011;38806;51.554;5.704;2023-04-05T00:53:49;25.00;;;9.60;;
50495;SDS011;38806;51.554;5.704;2023-04-05T00:55:51;12.63;;;8.88;;
50495;SDS011;38806;51.554;5.704;2023-04-05T00:57:52;14.13;;;9.40;;
50495;SDS011;38806;51.554;5.704;2023-04-05T00:59:56;18.58;;;10.30;;
50495;SDS011;38806;51.554;5.704;2023-04-05T01:02:02;26.77;;;13.45;;
50495;SDS011;38806;51.554;5.704;2023-04-05T01:04:05;24.92;;;15.40;;
50495;SDS011;38806;51.554;5.704;2023-04-05T01:06:09;20.55;;;11.90;;
50495;SDS011;38806;51.554;5.704;2023-04-05T01:08:35;18.60;;;11.13;;
50495;SDS011;38806;51.554;5.704;2023-04-05T01:10:41;18.20;;;10.73;;
50495;SDS011;38806;51.554;5.704;2023-04-05T01:12:43;18.40;;;10.25;;
50495;SDS011;38806;51.554;5.704;2023-04-05T01:14:44;19.25;;;11.52;;
50495;SDS011;38806;51.554;5.704;2023-04-05T01:16:45;19.88;;;10.77;;
50495;SDS011;38806;51.554;5.704;2023-04-05T01:18:48;19.58;;;11.88;;
50495;SDS011;38806;51.554;5.704;2023-04-05T01:20:51;16.23;;;9.80;;
50495;SDS011;38806;51.554;5.704;2023-04-05T01:23:04;18.02;;;9.23;;
50495;SDS011;38806;51.554;5.704;2023-04-05T01:27:19;18.08;;;11.68;;
50495;SDS011;38806;51.554;5.704;2023-04-05T01:29:34;18.10;;;11.43;;
50495;SDS011;38806;51.554;5.704;2023-04-05T01:33:40;19.90;;;11.70;;
50495;SDS011;38806;51.554;5.704;2023-04-05T01:35:50;23.58;;;12.13;;
50495;SDS011;38806;51.554;5.704;2023-04-05T01:37:52;22.25;;;12.07;;
50495;SDS011;38806;51.554;5.704;2023-04-05T01:39:54;23.23;;;11.98;;
50495;SDS011;38806;51.554;5.704;2023-04-05T01:41:58;25.80;;;11.75;;
50495;SDS011;38806;51.554;5.704;2023-04-05T01:43:59;18.45;;;14.57;;
50495;SDS011;38806;51.554;5.704;2023-04-05T01:45:59;24.90;;;11.70;;
50495;SDS011;38806;51.554;5.704;2023-04-05T01:47:59;18.58;;;10.40;;
50495;SDS011;38806;51.554;5.704;2023-04-05T01:50:00;17.52;;;10.65;;
50495;SDS011;38806;51.554;5.704;2023-04-05T01:52:00;26.25;;;13.07;;
50495;SDS011;38806;51.554;5.704;2023-04-05T01:54:00;18.75;;;11.68;;
50495;SDS011;38806;51.554;5.704;2023-04-05T01:56:00;24.50;;;12.27;;
50495;SDS011;38806;51.554;5.704;2023-04-05T01:58:01;25.50;;;11.93;;
50495;SDS011;38806;51.554;5.704;2023-04-05T02:00:01;22.38;;;11.65;;
50495;SDS011;38806;51.554;5.704;2023-04-05T02:02:01;22.58;;;11.32;;
50495;SDS011;38806;51.554;5.704;2023-04-05T02:04:01;19.83;;;10.55;;
50495;SDS011;38806;51.554;5.704;2023-04-05T02:06:01;20.60;;;11.70;;
50495;SDS011;38806;51.554;5.704;2023-04-05T02:08:01;22.17;;;12.68;;
50495;SDS011;38806;51.554;5.704;2023-04-05T02:10:02;24.40;;;12.73;;
50495;SDS011;38806;51.554;5.704;2023-04-05T02:12:02;16.70;;;9.10;;
50495;SDS011;38806;51.554;5.704;2023-04-05T02:14:02;21.70;;;11.27;;
50495;SDS011;38806;51.554;5.704;2023-04-05T02:16:03;17.67;;;10.93;;
50495;SDS011;38806;51.554;5.704;2023-04-05T02:18:03;21.63;;;11.88;;
50495;SDS011;38806;51.554;5.704;2023-04-05T02:20:07;16.60;;;9.68;;
50495;SDS011;38806;51.554;5.704;2023-04-05T02:22:07;16.65;;;10.45;;
50495;SDS011;38806;51.554;5.704;2023-04-05T02:24:08;18.20;;;10.25;;
50495;SDS011;38806;51.554;5.704;2023-04-05T02:26:08;19.58;;;10.10;;
50495;SDS011;38806;51.554;5.704;2023-04-05T02:28:08;16.13;;;9.75;;
50495;SDS011;38806;51.554;5.704;2023-04-05T02:30:08;22.05;;;11.88;;
50495;SDS011;38806;51.554;5.704;2023-04-05T02:32:09;17.35;;;10.55;;
50495;SDS011;38806;51.554;5.704;2023-04-05T02:34:09;19.15;;;10.18;;
50495;SDS011;38806;51.554;5.704;2023-04-05T02:36:11;18.95;;;10.68;;
50495;SDS011;38806;51.554;5.704;2023-04-05T02:38:12;18.40;;;10.95;;
50495;SDS011;38806;51.554;5.704;2023-04-05T02:40:12;18.58;;;9.88;;
50495;SDS011;38806;51.554;5.704;2023-04-05T02:42:13;19.48;;;11.38;;
50495;SDS011;38806;51.554;5.704;2023-04-05T02:44:14;21.00;;;10.10;;
50495;SDS011;38806;51.554;5.704;2023-04-05T02:46:14;21.63;;;10.45;;
50495;SDS011;38806;51.554;5.704;2023-04-05T02:48:14;18.65;;;10.15;;
50495;SDS011;38806;51.554;5.704;2023-04-05T02:50:15;20.02;;;10.18;;
50495;SDS011;38806;51.554;5.704;2023-04-05T02:52:19;21.50;;;10.77;;
50495;SDS011;38806;51.554;5.704;2023-04-05T02:54:20;22.52;;;11.18;;
50495;SDS011;38806;51.554;5.704;2023-04-05T02:56:20;20.35;;;12.20;;
50495;SDS011;38806;51.554;5.704;2023-04-05T02:58:21;18.50;;;10.18;;
50495;SDS011;38806;51.554;5.704;2023-04-05T03:00:22;20.30;;;10.48;;
50495;SDS011;38806;51.554;5.704;2023-04-05T03:02:22;21.40;;;10.70;;
50495;SDS011;38806;51.554;5.704;2023-04-05T03:04:22;21.08;;;10.50;;
50495;SDS011;38806;51.554;5.704;2023-04-05T03:06:25;20.15;;;12.85;;
50495;SDS011;38806;51.554;5.704;2023-04-05T03:08:26;19.00;;;10.38;;
50495;SDS011;38806;51.554;5.704;2023-04-05T03:10:27;20.35;;;10.57;;
50495;SDS011;38806;51.554;5.704;2023-04-05T03:12:31;20.08;;;10.95;;
50495;SDS011;38806;51.554;5.704;2023-04-05T03:14:32;21.38;;;12.82;;
50495;SDS011;38806;51.554;5.704;2023-04-05T03:16:33;20.42;;;10.20;;
50495;SDS011;38806;51.554;5.704;2023-04-05T03:18:36;19.90;;;12.23;;
50495;SDS011;38806;51.554;5.704;2023-04-05T03:20:36;18.83;;;11.00;;
50495;SDS011;38806;51.554;5.704;2023-04-05T03:22:40;17.80;;;12.27;;
50495;SDS011;38806;51.554;5.704;2023-04-05T03:24:40;20.02;;;10.93;;
50495;SDS011;38806;51.554;5.704;2023-04-05T03:26:44;16.80;;;9.68;;
50495;SDS011;38806;51.554;5.704;2023-04-05T03:28:45;20.30;;;11.90;;
50495;SDS011;38806;51.554;5.704;2023-04-05T03:30:45;22.83;;;12.45;;
50495;SDS011;38806;51.554;5.704;2023-04-05T03:32:45;20.83;;;10.70;;
50495;SDS011;38806;51.554;5.704;2023-04-05T03:34:46;27.85;;;11.60;;
50495;SDS011;38806;51.554;5.704;2023-04-05T03:36:46;22.33;;;12.07;;
50495;SDS011;38806;51.554;5.704;2023-04-05T03:38:48;23.58;;;12.65;;
50495;SDS011;38806;51.554;5.704;2023-04-05T03:40:50;21.08;;;10.27;;
50495;SDS011;38806;51.554;5.704;2023-04-05T03:42:50;18.77;;;13.60;;
50495;SDS011;38806;51.554;5.704;2023-04-05T03:44:51;17.70;;;9.57;;
50495;SDS011;38806;51.554;5.704;2023-04-05T03:46:51;23.48;;;12.55;;
50495;SDS011;38806;51.554;5.704;2023-04-05T03:48:52;25.73;;;13.02;;
50495;SDS011;38806;51.554;5.704;2023-04-05T03:50:52;21.27;;;11.85;;
50495;SDS011;38806;51.554;5.704;2023-04-05T03:52:52;15.75;;;10.60;;
50495;SDS011;38806;51.554;5.704;2023-04-05T03:54:52;20.83;;;12.23;;
50495;SDS011;38806;51.554;5.704;2023-04-05T03:56:52;23.15;;;11.25;;
50495;SDS011;38806;51.554;5.704;2023-04-05T03:58:52;21.80;;;11.52;;
50495;SDS011;38806;51.554;5.704;2023-04-05T04:00:53;18.00;;;11.05;;
50495;SDS011;38806;51.554;5.704;2023-04-05T04:02:55;20.70;;;11.32;;
50495;SDS011;38806;51.554;5.704;2023-04-05T04:04:55;20.77;;;12.10;;
50495;SDS011;38806;51.554;5.704;2023-04-05T04:06:55;19.95;;;11.25;;
50495;SDS011;38806;51.554;5.704;2023-04-05T04:08:56;17.00;;;11.05;;
50495;SDS011;38806;51.554;5.704;2023-04-05T04:10:56;21.55;;;12.30;;
50495;SDS011;38806;51.554;5.704;2023-04-05T04:12:56;19.63;;;11.13;;
50495;SDS011;38806;51.554;5.704;2023-04-05T04:14:56;22.70;;;12.55;;
50495;SDS011;38806;51.554;5.704;2023-04-05T04:16:57;21.02;;;11.77;;
50495;SDS011;38806;51.554;5.704;2023-04-05T04:18:57;22.98;;;10.75;;
50495;SDS011;38806;51.554;5.704;2023-04-05T04:21:00;21.02;;;11.40;;
50495;SDS011;38806;51.554;5.704;2023-04-05T04:23:05;22.42;;;11.43;;
50495;SDS011;38806;51.554;5.704;2023-04-05T04:25:09;19.90;;;11.77;;
50495;SDS011;38806;51.554;5.704;2023-04-05T04:27:09;28.98;;;13.35;;
50495;SDS011;38806;51.554;5.704;2023-04-05T04:29:10;26.70;;;11.55;;
50495;SDS011;38806;51.554;5.704;2023-04-05T04:31:11;22.45;;;12.23;;
50495;SDS011;38806;51.554;5.704;2023-04-05T04:33:14;21.10;;;13.30;;
50495;SDS011;38806;51.554;5.704;2023-04-05T04:35:16;17.90;;;11.40;;
50495;SDS011;38806;51.554;5.704;2023-04-05T04:37:19;20.75;;;12.18;;
50495;SDS011;38806;51.554;5.704;2023-04-05T04:39:21;18.40;;;11.48;;
50495;SDS011;38806;51.554;5.704;2023-04-05T04:41:25;20.20;;;11.35;;
50495;SDS011;38806;51.554;5.704;2023-04-05T04:43:26;19.35;;;11.82;;
50495;SDS011;38806;51.554;5.704;2023-04-05T04:45:26;21.15;;;10.45;;
50495;SDS011;38806;51.554;5.704;2023-04-05T04:47:26;25.33;;;12.50;;
50495;SDS011;38806;51.554;5.704;2023-04-05T04:49:26;21.77;;;11.90;;
50495;SDS011;38806;51.554;5.704;2023-04-05T04:51:27;22.98;;;11.77;;
50495;SDS011;38806;51.554;5.704;2023-04-05T04:53:27;23.38;;;13.68;;
50495;SDS011;38806;51.554;5.704;2023-04-05T04:55:27;23.90;;;12.07;;
50495;SDS011;38806;51.554;5.704;2023-04-05T04:57:28;25.60;;;11.57;;
50495;SDS011;38806;51.554;5.704;2023-04-05T04:59:28;15.35;;;11.60;;
50495;SDS011;38806;51.554;5.704;2023-04-05T05:01:28;21.90;;;11.10;;
50495;SDS011;38806;51.554;5.704;2023-04-05T05:03:28;23.23;;;12.73;;
50495;SDS011;38806;51.554;5.704;2023-04-05T05:05:29;18.05;;;11.15;;
50495;SDS011;38806;51.554;5.704;2023-04-05T05:07:29;24.73;;;14.35;;
50495;SDS011;38806;51.554;5.704;2023-04-05T05:09:29;18.15;;;11.38;;
50495;SDS011;38806;51.554;5.704;2023-04-05T05:11:30;24.45;;;12.70;;
50495;SDS011;38806;51.554;5.704;2023-04-05T05:13:31;25.02;;;12.07;;
50495;SDS011;38806;51.554;5.704;2023-04-05T05:15:31;18.63;;;12.52;;
50495;SDS011;38806;51.554;5.704;2023-04-05T05:17:31;17.85;;;12.68;;
50495;SDS011;38806;51.554;5.704;2023-04-05T05:19:31;24.42;;;12.35;;
50495;SDS011;38806;51.554;5.704;2023-04-05T05:21:31;23.60;;;14.00;;
50495;SDS011;38806;51.554;5.704;2023-04-05T05:23:32;25.08;;;13.45;;
50495;SDS011;38806;51.554;5.704;2023-04-05T05:25:32;19.73;;;13.52;;
50495;SDS011;38806;51.554;5.704;2023-04-05T05:27:32;22.50;;;12.82;;
50495;SDS011;38806;51.554;5.704;2023-04-05T05:29:32;19.83;;;11.40;;
50495;SDS011;38806;51.554;5.704;2023-04-05T05:31:33;24.95;;;12.68;;
50495;SDS011;38806;51.554;5.704;2023-04-05T05:33:33;19.35;;;12.18;;
50495;SDS011;38806;51.554;5.704;2023-04-05T05:35:33;16.90;;;10.45;;
50495;SDS011;38806;51.554;5.704;2023-04-05T05:37:33;19.42;;;12.52;;
50495;SDS011;38806;51.554;5.704;2023-04-05T05:39:35;17.67;;;12.10;;
50495;SDS011;38806;51.554;5.704;2023-04-05T05:41:35;19.63;;;13.25;;
50495;SDS011;38806;51.554;5.704;2023-04-05T05:43:36;22.08;;;12.55;;
50495;SDS011;38806;51.554;5.704;2023-04-05T05:45:36;25.20;;;11.90;;
50495;SDS011;38806;51.554;5.704;2023-04-05T05:47:36;19.50;;;10.48;;
50495;SDS011;38806;51.554;5.704;2023-04-05T05:49:36;20.13;;;11.20;;
50495;SDS011;38806;51.554;5.704;2023-04-05T05:51:36;19.58;;;11.75;;
50495;SDS011;38806;51.554;5.704;2023-04-05T05:53:37;21.27;;;11.48;;
50495;SDS011;38806;51.554;5.704;2023-04-05T05:55:37;26.02;;;14.10;;
50495;SDS011;38806;51.554;5.704;2023-04-05T05:57:38;25.17;;;13.73;;
50495;SDS011;38806;51.554;5.704;2023-04-05T05:59:38;27.10;;;15.20;;
50495;SDS011;38806;51.554;5.704;2023-04-05T06:01:38;19.55;;;12.80;;
50495;SDS011;38806;51.554;5.704;2023-04-05T06:03:41;26.95;;;14.73;;
50495;SDS011;38806;51.554;5.704;2023-04-05T06:05:49;22.70;;;13.65;;
50495;SDS011;38806;51.554;5.704;2023-04-05T06:07:49;27.30;;;14.98;;
50495;SDS011;38806;51.554;5.704;2023-04-05T06:09:49;25.58;;;14.55;;
50495;SDS011;38806;51.554;5.704;2023-04-05T06:11:50;31.48;;;14.60;;
50495;SDS011;38806;51.554;5.704;2023-04-05T06:13:51;25.20;;;14.07;;
50495;SDS011;38806;51.554;5.704;2023-04-05T06:15:51;26.90;;;14.52;;
50495;SDS011;38806;51.554;5.704;2023-04-05T06:17:51;25.33;;;15.75;;
50495;SDS011;38806;51.554;5.704;2023-04-05T06:19:51;24.15;;;14.32;;
50495;SDS011;38806;51.554;5.704;2023-04-05T06:21:52;41.20;;;16.35;;
50495;SDS011;38806;51.554;5.704;2023-04-05T06:23:53;23.55;;;16.88;;
50495;SDS011;38806;51.554;5.704;2023-04-05T06:25:54;26.13;;;14.80;;
50495;SDS011;38806;51.554;5.704;2023-04-05T06:27:55;25.00;;;15.88;;
50495;SDS011;38806;51.554;5.704;2023-04-05T06:29:58;30.83;;;17.17;;
50495;SDS011;38806;51.554;5.704;2023-04-05T06:31:58;29.48;;;17.90;;
50495;SDS011;38806;51.554;5.704;2023-04-05T06:33:58;30.33;;;16.52;;
50495;SDS011;38806;51.554;5.704;2023-04-05T06:35:59;27.52;;;17.73;;
50495;SDS011;38806;51.554;5.704;2023-04-05T06:37:59;29.63;;;17.23;;
50495;SDS011;38806;51.554;5.704;2023-04-05T06:39:59;26.15;;;17.25;;
50495;SDS011;38806;51.554;5.704;2023-04-05T06:41:59;32.97;;;19.98;;
50495;SDS011;38806;51.554;5.704;2023-04-05T06:44:00;34.67;;;20.70;;
50495;SDS011;38806;51.554;5.704;2023-04-05T06:46:00;38.03;;;24.45;;
50495;SDS011;38806;51.554;5.704;2023-04-05T06:48:01;37.63;;;22.42;;
50495;SDS011;38806;51.554;5.704;2023-04-05T06:50:01;44.55;;;25.42;;
50495;SDS011;38806;51.554;5.704;2023-04-05T06:52:01;40.15;;;26.85;;
50495;SDS011;38806;51.554;5.704;2023-04-05T06:54:04;42.15;;;24.83;;
50495;SDS011;38806;51.554;5.704;2023-04-05T06:56:05;35.58;;;22.48;;
50495;SDS011;38806;51.554;5.704;2023-04-05T06:58:05;36.05;;;21.00;;
50495;SDS011;38806;51.554;5.704;2023-04-05T07:00:06;41.03;;;23.48;;
50495;SDS011;38806;51.554;5.704;2023-04-05T07:02:11;37.42;;;21.13;;
50495;SDS011;38806;51.554;5.704;2023-04-05T07:04:11;41.90;;;22.40;;
50495;SDS011;38806;51.554;5.704;2023-04-05T07:06:11;33.63;;;20.33;;
50495;SDS011;38806;51.554;5.704;2023-04-05T07:08:12;34.40;;;19.83;;
50495;SDS011;38806;51.554;5.704;2023-04-05T07:10:12;37.55;;;22.58;;
50495;SDS011;38806;51.554;5.704;2023-04-05T07:12:12;31.08;;;20.83;;
50495;SDS011;38806;51.554;5.704;2023-04-05T07:14:12;41.45;;;22.45;;
50495;SDS011;38806;51.554;5.704;2023-04-05T07:16:12;35.63;;;21.05;;
50495;SDS011;38806;51.554;5.704;2023-04-05T07:18:12;38.22;;;21.95;;
50495;SDS011;38806;51.554;5.704;2023-04-05T07:20:15;31.70;;;19.80;;
50495;SDS011;38806;51.554;5.704;2023-04-05T07:22:16;26.35;;;17.83;;
50495;SDS011;38806;51.554;5.704;2023-04-05T07:24:16;42.58;;;21.80;;
50495;SDS011;38806;51.554;5.704;2023-04-05T07:26:16;28.20;;;18.35;;
50495;SDS011;38806;51.554;5.704;2023-04-05T07:28:16;33.08;;;19.83;;
50495;SDS011;38806;51.554;5.704;2023-04-05T07:30:16;28.75;;;18.13;;
50495;SDS011;38806;51.554;5.704;2023-04-05T07:32:17;31.75;;;17.77;;
50495;SDS011;38806;51.554;5.704;2023-04-05T07:34:17;33.03;;;17.90;;
50495;SDS011;38806;51.554;5.704;2023-04-05T07:36:17;36.42;;;20.65;;
50495;SDS011;38806;51.554;5.704;2023-04-05T07:38:17;34.15;;;18.92;;
50495;SDS011;38806;51.554;5.704;2023-04-05T07:40:17;33.20;;;20.10;;
50495;SDS011;38806;51.554;5.704;2023-04-05T07:42:18;30.10;;;18.40;;
50495;SDS011;38806;51.554;5.704;2023-04-05T07:44:20;30.38;;;17.25;;
50495;SDS011;38806;51.554;5.704;2023-04-05T07:46:20;30.17;;;17.63;;
50495;SDS011;38806;51.554;5.704;2023-04-05T07:48:21;31.02;;;18.80;;
50495;SDS011;38806;51.554;5.704;2023-04-05T07:50:21;30.85;;;18.00;;
50495;SDS011;38806;51.554;5.704;2023-04-05T07:52:21;25.85;;;17.08;;
50495;SDS011;38806;51.554;5.704;2023-04-05T07:54:21;27.65;;;17.35;;
50495;SDS011;38806;51.554;5.704;2023-04-05T07:56:22;28.33;;;16.52;;
50495;SDS011;38806;51.554;5.704;2023-04-05T07:58:23;29.45;;;16.80;;
50495;SDS011;38806;51.554;5.704;2023-04-05T08:00:23;28.20;;;16.83;;
50495;SDS011;38806;51.554;5.704;2023-04-05T08:02:26;22.13;;;14.77;;
50495;SDS011;38806;51.554;5.704;2023-04-05T08:04:26;26.42;;;15.57;;
50495;SDS011;38806;51.554;5.704;2023-04-05T08:06:26;29.25;;;16.83;;
50495;SDS011;38806;51.554;5.704;2023-04-05T08:08:26;30.15;;;15.23;;
50495;SDS011;38806;51.554;5.704;2023-04-05T08:10:27;27.45;;;14.70;;
50495;SDS011;38806;51.554;5.704;2023-04-05T08:12:27;21.08;;;14.25;;
50495;SDS011;38806;51.554;5.704;2023-04-05T08:14:28;24.15;;;14.73;;
50495;SDS011;38806;51.554;5.704;2023-04-05T08:16:29;27.13;;;14.70;;
50495;SDS011;38806;51.554;5.704;2023-04-05T08:18:29;21.60;;;13.00;;
50495;SDS011;38806;51.554;5.704;2023-04-05T08:20:29;21.05;;;13.52;;
50495;SDS011;38806;51.554;5.704;2023-04-05T08:22:29;23.02;;;14.25;;
50495;SDS011;38806;51.554;5.704;2023-04-05T08:24:30;22.83;;;10.02;;
50495;SDS011;38806;51.554;5.704;2023-04-05T08:26:30;20.55;;;11.30;;
50495;SDS011;38806;51.554;5.704;2023-04-05T08:28:30;17.92;;;12.35;;
50495;SDS011;38806;51.554;5.704;2023-04-05T08:30:30;24.15;;;11.15;;
50495;SDS011;38806;51.554;5.704;2023-04-05T08:32:30;22.27;;;12.98;;
50495;SDS011;38806;51.554;5.704;2023-04-05T08:34:31;17.75;;;11.15;;
50495;SDS011;38806;51.554;5.704;2023-04-05T08:36:32;22.00;;;10.20;;
50495;SDS011;38806;51.554;5.704;2023-04-05T08:38:32;18.33;;;9.95;;
50495;SDS011;38806;51.554;5.704;2023-04-05T08:42:36;13.93;;;8.40;;
50495;SDS011;38806;51.554;5.704;2023-04-05T08:44:41;13.65;;;8.73;;
50495;SDS011;38806;51.554;5.704;2023-04-05T08:46:42;17.00;;;8.48;;
50495;SDS011;38806;51.554;5.704;2023-04-05T08:48:43;20.52;;;8.93;;
50495;SDS011;38806;51.554;5.704;2023-04-05T08:50:50;13.95;;;8.07;;
50495;SDS011;38806;51.554;5.704;2023-04-05T08:52:50;17.20;;;7.28;;
50495;SDS011;38806;51.554;5.704;2023-04-05T08:54:52;13.43;;;7.68;;
50495;SDS011;38806;51.554;5.704;2023-04-05T08:56:53;10.40;;;6.95;;
50495;SDS011;38806;51.554;5.704;2023-04-05T08:58:57;12.88;;;7.65;;
50495;SDS011;38806;51.554;5.704;2023-04-05T09:01:00;11.63;;;7.60;;
50495;SDS011;38806;51.554;5.704;2023-04-05T09:03:01;13.77;;;6.78;;
50495;SDS011;38806;51.554;5.704;2023-04-05T09:05:02;14.05;;;6.60;;
50495;SDS011;38806;51.554;5.704;2023-04-05T09:07:02;12.82;;;6.35;;
50495;SDS011;38806;51.554;5.704;2023-04-05T09:09:06;8.45;;;5.75;;
50495;SDS011;38806;51.554;5.704;2023-04-05T09:11:06;9.80;;;6.15;;
50495;SDS011;38806;51.554;5.704;2023-04-05T09:13:06;9.35;;;5.47;;
50495;SDS011;38806;51.554;5.704;2023-04-05T09:15:07;10.73;;;5.57;;
50495;SDS011;38806;51.554;5.704;2023-04-05T09:17:08;10.85;;;7.43;;
50495;SDS011;38806;51.554;5.704;2023-04-05T09:19:09;11.23;;;7.22;;
50495;SDS011;38806;51.554;5.704;2023-04-05T09:21:09;11.07;;;7.80;;
50495;SDS011;38806;51.554;5.704;2023-04-05T09:23:10;12.18;;;7.88;;
50495;SDS011;38806;51.554;5.704;2023-04-05T09:25:10;10.32;;;6.32;;
50495;SDS011;38806;51.554;5.704;2023-04-05T09:27:11;14.75;;;7.32;;
50495;SDS011;38806;51.554;5.704;2023-04-05T09:29:27;11.27;;;6.22;;
50495;SDS011;38806;51.554;5.704;2023-04-05T09:31:31;14.70;;;7.07;;
50495;SDS011;38806;51.554;5.704;2023-04-05T09:33:32;13.25;;;7.60;;
50495;SDS011;38806;51.554;5.704;2023-04-05T09:35:35;13.45;;;8.02;;
50495;SDS011;38806;51.554;5.704;2023-04-05T09:37:35;12.73;;;7.68;;
50495;SDS011;38806;51.554;5.704;2023-04-05T09:39:35;10.47;;;7.57;;
50495;SDS011;38806;51.554;5.704;2023-04-05T09:41:35;11.77;;;7.27;;
50495;SDS011;38806;51.554;5.704;2023-04-05T09:43:39;9.00;;;7.57;;
50495;SDS011;38806;51.554;5.704;2023-04-05T09:45:42;10.45;;;8.35;;
50495;SDS011;38806;51.554;5.704;2023-04-05T09:47:52;10.25;;;7.80;;
50495;SDS011;38806;51.554;5.704;2023-04-05T09:49:52;11.95;;;8.45;;
50495;SDS011;38806;51.554;5.704;2023-04-05T09:51:53;14.20;;;8.52;;
50495;SDS011;38806;51.554;5.704;2023-04-05T09:56:07;10.85;;;9.20;;
50495;SDS011;38806;51.554;5.704;2023-04-05T09:58:11;13.70;;;9.10;;
50495;SDS011;38806;51.554;5.704;2023-04-05T10:00:20;12.35;;;8.95;;
50495;SDS011;38806;51.554;5.704;2023-04-05T10:02:21;10.80;;;7.47;;
50495;SDS011;38806;51.554;5.704;2023-04-05T10:04:23;12.23;;;9.23;;
50495;SDS011;38806;51.554;5.704;2023-04-05T10:06:23;10.43;;;7.97;;
50495;SDS011;38806;51.554;5.704;2023-04-05T10:08:23;15.23;;;7.55;;
50495;SDS011;38806;51.554;5.704;2023-04-05T10:10:24;9.65;;;7.25;;
50495;SDS011;38806;51.554;5.704;2023-04-05T10:12:25;9.85;;;7.10;;
50495;SDS011;38806;51.554;5.704;2023-04-05T10:14:28;12.98;;;8.32;;
50495;SDS011;38806;51.554;5.704;2023-04-05T10:16:29;10.45;;;7.70;;
50495;SDS011;38806;51.554;5.704;2023-04-05T10:18:33;9.90;;;8.40;;
50495;SDS011;38806;51.554;5.704;2023-04-05T10:20:38;9.93;;;7.53;;
50495;SDS011;38806;51.554;5.704;2023-04-05T10:24:44;12.57;;;7.53;;
50495;SDS011;38806;51.554;5.704;2023-04-05T10:26:47;12.38;;;7.57;;
50495;SDS011;38806;51.554;5.704;2023-04-05T10:28:51;9.35;;;7.63;;
50495;SDS011;38806;51.554;5.704;2023-04-05T10:31:09;9.45;;;6.88;;
50495;SDS011;38806;51.554;5.704;2023-04-05T10:33:15;16.65;;;8.73;;
50495;SDS011;38806;51.554;5.704;2023-04-05T10:35:19;9.63;;;6.90;;
50495;SDS011;38806;51.554;5.704;2023-04-05T10:37:24;8.45;;;6.63;;
50495;SDS011;38806;51.554;5.704;2023-04-05T10:39:34;11.57;;;8.68;;
50495;SDS011;38806;51.554;5.704;2023-04-05T10:41:41;10.63;;;7.80;;
50495;SDS011;38806;51.554;5.704;2023-04-05T10:43:43;12.73;;;7.85;;
50495;SDS011;38806;51.554;5.704;2023-04-05T10:45:45;14.20;;;7.55;;
50495;SDS011;38806;51.554;5.704;2023-04-05T10:47:53;9.13;;;7.82;;
50495;SDS011;38806;51.554;5.704;2023-04-05T10:49:55;12.20;;;8.10;;
50495;SDS011;38806;51.554;5.704;2023-04-05T10:51:55;15.52;;;6.90;;
50495;SDS011;38806;51.554;5.704;2023-04-05T10:53:56;9.85;;;6.70;;
50495;SDS011;38806;51.554;5.704;2023-04-05T10:55:56;11.63;;;8.63;;
50495;SDS011;38806;51.554;5.704;2023-04-05T10:57:57;10.93;;;7.93;;
50495;SDS011;38806;51.554;5.704;2023-04-05T10:59:58;9.65;;;7.80;;
50495;SDS011;38806;51.554;5.704;2023-04-05T11:01:58;13.20;;;9.57;;
50495;SDS011;38806;51.554;5.704;2023-04-05T11:04:15;13.63;;;9.48;;
50495;SDS011;38806;51.554;5.704;2023-04-05T11:06:31;11.02;;;9.10;;
50495;SDS011;38806;51.554;5.704;2023-04-05T11:08:31;11.52;;;7.05;;
50495;SDS011;38806;51.554;5.704;2023-04-05T11:10:35;10.77;;;7.53;;
50495;SDS011;38806;51.554;5.704;2023-04-05T11:14:45;11.38;;;7.82;;
50495;SDS011;38806;51.554;5.704;2023-04-05T11:16:46;13.73;;;6.82;;
50495;SDS011;38806;51.554;5.704;2023-04-05T11:18:50;9.45;;;7.18;;
50495;SDS011;38806;51.554;5.704;2023-04-05T11:20:52;12.25;;;8.68;;
50495;SDS011;38806;51.554;5.704;2023-04-05T11:22:54;11.95;;;8.02;;
50495;SDS011;38806;51.554;5.704;2023-04-05T11:24:55;12.03;;;8.17;;
50495;SDS011;38806;51.554;5.704;2023-04-05T11:26:57;12.00;;;8.85;;
50495;SDS011;38806;51.554;5.704;2023-04-05T11:28:57;12.77;;;8.60;;
50495;SDS011;38806;51.554;5.704;2023-04-05T11:30:57;9.95;;;7.97;;
50495;SDS011;38806;51.554;5.704;2023-04-05T11:33:10;12.15;;;8.38;;
50495;SDS011;38806;51.554;5.704;2023-04-05T11:35:14;12.88;;;7.80;;
50495;SDS011;38806;51.554;5.704;2023-04-05T11:37:16;13.02;;;7.07;;
50495;SDS011;38806;51.554;5.704;2023-04-05T11:41:16;12.87;;;7.70;;
50495;SDS011;38806;51.554;5.704;2023-04-05T11:43:17;13.95;;;8.32;;
50495;SDS011;38806;51.554;5.704;2023-04-05T11:45:17;12.20;;;7.97;;
50495;SDS011;38806;51.554;5.704;2023-04-05T11:47:18;11.68;;;7.25;;
50495;SDS011;38806;51.554;5.704;2023-04-05T11:49:21;11.55;;;7.97;;
50495;SDS011;38806;51.554;5.704;2023-04-05T11:51:22;10.60;;;9.07;;
50495;SDS011;38806;51.554;5.704;2023-04-05T11:53:23;10.77;;;7.07;;
50495;SDS011;38806;51.554;5.704;2023-04-05T11:55:26;10.70;;;6.82;;
50495;SDS011;38806;51.554;5.704;2023-04-05T11:57:26;13.57;;;8.95;;
50495;SDS011;38806;51.554;5.704;2023-04-05T11:59:28;10.18;;;6.75;;
50495;SDS011;38806;51.554;5.704;2023-04-05T12:01:28;9.18;;;6.75;;
50495;SDS011;38806;51.554;5.704;2023-04-05T12:03:29;9.68;;;7.18;;
50495;SDS011;38806;51.554;5.704;2023-04-05T12:05:45;8.75;;;6.65;;
50495;SDS011;38806;51.554;5.704;2023-04-05T12:07:45;10.20;;;7.20;;
50495;SDS011;38806;51.554;5.704;2023-04-05T12:10:09;12.50;;;8.75;;